Time,TemperatureF,DewpointF,PressureIn,WindDirection,WindDirectionDegrees,WindSpeedMPH,WindSpeedGustMPH,Humidity,HourlyPrecipIn,Conditions,Clouds,dailyrainin,SoftwareType,DateUTC
2013-05-25 00:01:00,57.6,39.6,30.22,NNE,20,0.0,1.0,51,0.00,,---,0.00,VWS V14.01,2013-05-25 04:01:00,
2013-05-25 00:06:00,56.6,40.6,30.22,NNE,20,0.0,0.0,55,0.00,,---,0.00,VWS V14.01,2013-05-25 04:06:00,
2013-05-25 00:11:00,55.8,39.9,30.22,NNE,20,0.0,0.0,55,0.00,,---,0.00,VWS V14.01,2013-05-25 04:11:00,
2013-05-25 00:16:00,55.9,39.5,30.22,NNE,20,0.0,0.0,54,0.00,,---,0.00,VWS V14.01,2013-05-25 04:16:00,
2013-05-25 00:21:00,56.0,38.6,30.22,NNE,20,0.0,0.0,52,0.00,,---,0.00,VWS V14.01,2013-05-25 04:21:00,
2013-05-25 00:26:00,56.2,38.3,30.22,NNE,20,0.0,1.0,51,0.00,,---,0.00,VWS V14.01,2013-05-25 04:26:00,
2013-05-25 00:31:00,56.2,38.8,30.22,NNE,20,0.0,0.0,52,0.00,,---,0.00,VWS V14.01,2013-05-25 04:31:00,
2013-05-25 00:36:00,56.1,38.7,30.23,NNE,20,0.0,0.0,52,0.00,,---,0.00,VWS V14.01,2013-05-25 04:36:00,
2013-05-25 00:41:00,56.1,39.7,30.23,NNE,20,0.0,1.0,54,0.00,,---,0.00,VWS V14.01,2013-05-25 04:41:00,
2013-05-25 00:46:00,55.7,41.2,30.22,NNE,20,0.0,0.0,58,0.00,,---,0.00,VWS V14.01,2013-05-25 04:46:00,
2013-05-25 00:51:00,55.0,41.4,30.22,NW,309,0.0,0.0,60,0.00,,---,0.00,VWS V14.01,2013-05-25 04:51:00,
2013-05-25 00:56:00,55.0,40.5,30.23,NW,311,0.0,0.0,58,0.00,,---,0.00,VWS V14.01,2013-05-25 04:56:00,
2013-05-25 01:01:00,55.2,40.2,30.23,North,356,0.0,0.0,57,0.00,,---,0.00,VWS V14.01,2013-05-25 05:01:00,
2013-05-25 01:06:00,55.7,39.8,30.22,NNE,31,1.0,1.0,55,0.00,,---,0.00,VWS V14.01,2013-05-25 05:06:00,
2013-05-25 01:11:00,55.8,39.4,30.22,NE,40,1.0,1.0,54,0.00,,---,0.00,VWS V14.01,2013-05-25 05:11:00,
2013-05-25 01:16:00,55.7,38.8,30.22,NNW,340,1.0,1.0,53,0.00,,---,0.00,VWS V14.01,2013-05-25 05:16:00,
2013-05-25 01:21:00,55.2,39.3,30.22,North,356,0.0,0.0,55,0.00,,---,0.00,VWS V14.01,2013-05-25 05:21:00,
2013-05-25 01:26:00,54.9,39.0,30.22,NNE,20,0.0,0.0,55,0.00,,---,0.00,VWS V14.01,2013-05-25 05:26:00,
2013-05-25 01:31:00,54.5,40.0,30.23,NNW,348,2.0,2.0,58,0.00,,---,0.00,VWS V14.01,2013-05-25 05:31:00,
2013-05-25 01:36:00,53.7,40.2,30.22,NNE,12,0.0,1.0,60,0.00,,---,0.00,VWS V14.01,2013-05-25 05:36:00,
2013-05-25 01:41:00,52.9,40.2,30.23,NNE,12,0.0,0.0,62,0.00,,---,0.00,VWS V14.01,2013-05-25 05:41:00,
2013-05-25 01:46:00,52.3,40.5,30.23,North,11,0.0,1.0,64,0.00,,---,0.00,VWS V14.01,2013-05-25 05:46:00,
2013-05-25 01:51:00,52.0,42.9,30.23,NW,325,0.0,0.0,71,0.00,,---,0.00,VWS V14.01,2013-05-25 05:51:00,
2013-05-25 01:56:00,51.0,43.4,30.22,NW,325,0.0,0.0,75,0.00,,---,0.00,VWS V14.01,2013-05-25 05:56:00,
2013-05-25 02:01:00,50.4,41.4,30.22,NW,324,0.0,0.0,71,0.00,,---,0.00,VWS V14.01,2013-05-25 06:01:00,
2013-05-25 02:06:00,50.6,40.4,30.22,NW,325,0.0,0.0,68,0.00,,---,0.00,VWS V14.01,2013-05-25 06:06:00,
2013-05-25 02:11:00,51.4,40.0,30.22,NW,324,0.0,0.0,65,0.00,,---,0.00,VWS V14.01,2013-05-25 06:11:00,
2013-05-25 02:16:00,52.3,39.7,30.21,NNE,32,1.0,1.0,62,0.00,,---,0.00,VWS V14.01,2013-05-25 06:16:00,
2013-05-25 02:21:00,52.7,39.2,30.21,NNE,32,0.0,0.0,60,0.00,,---,0.00,VWS V14.01,2013-05-25 06:21:00,
2013-05-25 02:27:00,52.6,39.5,30.22,North,358,0.0,1.0,61,0.00,,---,0.00,VWS V14.01,2013-05-25 06:27:00,
2013-05-25 02:31:00,52.3,40.1,30.22,NNW,341,0.0,0.0,63,0.00,,---,0.00,VWS V14.01,2013-05-25 06:31:00,
2013-05-25 02:37:00,51.5,40.9,30.22,NNE,30,0.0,0.0,67,0.00,,---,0.00,VWS V14.01,2013-05-25 06:37:00,
2013-05-25 02:42:00,50.7,41.3,30.22,NNE,30,0.0,0.0,70,0.00,,---,0.00,VWS V14.01,2013-05-25 06:42:00,
2013-05-25 02:47:00,50.1,41.8,30.22,NNE,29,0.0,0.0,73,0.00,,---,0.00,VWS V14.01,2013-05-25 06:47:00,
2013-05-25 02:52:00,49.5,42.3,30.22,NNE,30,0.0,0.0,76,0.00,,---,0.00,VWS V14.01,2013-05-25 06:52:00,
2013-05-25 02:57:00,49.0,43.1,30.22,NNE,29,0.0,0.0,80,0.00,,---,0.00,VWS V14.01,2013-05-25 06:57:00,
2013-05-25 03:02:00,48.3,42.4,30.22,NNE,29,0.0,0.0,80,0.00,,---,0.00,VWS V14.01,2013-05-25 07:02:00,
2013-05-25 03:07:00,48.0,42.1,30.22,NNE,27,0.0,0.0,80,0.00,,---,0.00,VWS V14.01,2013-05-25 07:07:00,
2013-05-25 03:12:00,47.8,42.9,30.22,NNE,27,0.0,1.0,83,0.00,,---,0.00,VWS V14.01,2013-05-25 07:12:00,
2013-05-25 03:17:00,47.5,42.6,30.22,NNW,333,0.0,0.0,83,0.00,,---,0.00,VWS V14.01,2013-05-25 07:17:00,
2013-05-25 03:22:00,47.3,42.7,30.22,NNW,333,0.0,0.0,84,0.00,,---,0.00,VWS V14.01,2013-05-25 07:22:00,
2013-05-25 03:27:00,47.0,42.7,30.23,NNW,333,0.0,0.0,85,0.00,,---,0.00,VWS V14.01,2013-05-25 07:27:00,
2013-05-25 03:32:00,46.7,43.0,30.23,NNW,333,0.0,0.0,87,0.00,,---,0.00,VWS V14.01,2013-05-25 07:32:00,
2013-05-25 03:37:00,46.6,43.2,30.23,NNW,333,0.0,0.0,88,0.00,,---,0.00,VWS V14.01,2013-05-25 07:37:00,
2013-05-25 03:42:00,46.5,43.1,30.23,NNW,333,0.0,0.0,88,0.00,,---,0.00,VWS V14.01,2013-05-25 07:42:00,
2013-05-25 03:47:00,46.4,43.3,30.23,NNW,333,0.0,0.0,89,0.00,,---,0.00,VWS V14.01,2013-05-25 07:47:00,
2013-05-25 03:52:00,46.1,43.0,30.22,NNW,333,0.0,0.0,89,0.00,,---,0.00,VWS V14.01,2013-05-25 07:52:00,
2013-05-25 03:57:00,46.0,43.0,30.23,NNW,333,0.0,0.0,89,0.00,,---,0.00,VWS V14.01,2013-05-25 07:57:00,
2013-05-25 04:02:00,46.0,42.3,30.23,NNW,333,0.0,0.0,87,0.00,,---,0.00,VWS V14.01,2013-05-25 08:02:00,
2013-05-25 04:07:00,46.9,42.6,30.23,NNW,333,0.0,0.0,85,0.00,,---,0.00,VWS V14.01,2013-05-25 08:07:00,
2013-05-25 04:12:00,47.4,42.8,30.23,North,5,0.0,1.0,84,0.00,,---,0.00,VWS V14.01,2013-05-25 08:12:00,
2013-05-25 04:17:00,47.7,42.5,30.23,NNE,23,1.0,1.0,82,0.00,,---,0.00,VWS V14.01,2013-05-25 08:17:00,
2013-05-25 04:22:00,48.7,42.2,30.23,NE,34,0.0,1.0,78,0.00,,---,0.00,VWS V14.01,2013-05-25 08:22:00,
2013-05-25 04:27:00,49.7,41.0,30.23,NE,36,0.0,1.0,72,0.00,,---,0.00,VWS V14.01,2013-05-25 08:27:00,
2013-05-25 04:32:00,50.3,40.9,30.23,NE,35,0.0,0.0,70,0.00,,---,0.00,VWS V14.01,2013-05-25 08:32:00,
2013-05-25 04:37:00,50.6,40.4,30.24,NE,36,0.0,0.0,68,0.00,,---,0.00,VWS V14.01,2013-05-25 08:37:00,
2013-05-25 04:42:00,50.5,40.7,30.24,NE,37,1.0,1.0,69,0.00,,---,0.00,VWS V14.01,2013-05-25 08:42:00,
2013-05-25 04:47:00,50.1,40.7,30.24,NE,37,0.0,0.0,70,0.00,,---,0.00,VWS V14.01,2013-05-25 08:47:00,
2013-05-25 04:52:00,49.6,40.6,30.24,North,349,0.0,0.0,71,0.00,,---,0.00,VWS V14.01,2013-05-25 08:52:00,
2013-05-25 04:57:00,49.2,40.2,30.24,North,349,0.0,0.0,71,0.00,,---,0.00,VWS V14.01,2013-05-25 08:57:00,
2013-05-25 05:02:00,49.0,40.4,30.24,North,349,0.0,0.0,72,0.00,,---,0.00,VWS V14.01,2013-05-25 09:02:00,
2013-05-25 05:07:00,48.6,40.7,30.24,North,352,0.0,0.0,74,0.00,,---,0.00,VWS V14.01,2013-05-25 09:07:00,
2013-05-25 05:12:00,47.6,41.8,30.25,NNW,330,0.0,0.0,80,0.00,,---,0.00,VWS V14.01,2013-05-25 09:12:00,
2013-05-25 05:17:00,46.6,41.7,30.24,NNW,330,0.0,0.0,83,0.00,,---,0.00,VWS V14.01,2013-05-25 09:17:00,
2013-05-25 05:22:00,45.9,41.7,30.24,NNW,330,0.0,0.0,85,0.00,,---,0.00,VWS V14.01,2013-05-25 09:22:00,
2013-05-25 05:27:00,45.3,41.7,30.24,NNW,330,0.0,0.0,87,0.00,,---,0.00,VWS V14.01,2013-05-25 09:27:00,
2013-05-25 05:32:00,44.8,41.5,30.24,NNW,330,0.0,0.0,88,0.00,,---,0.00,VWS V14.01,2013-05-25 09:32:00,
2013-05-25 05:37:00,44.5,41.5,30.24,NNW,330,0.0,0.0,89,0.00,,---,0.00,VWS V14.01,2013-05-25 09:37:00,
2013-05-25 05:42:00,44.1,41.1,30.24,NNW,330,0.0,0.0,89,0.00,,---,0.00,VWS V14.01,2013-05-25 09:42:00,
2013-05-25 05:47:00,43.8,41.1,30.25,NNW,330,0.0,0.0,90,0.00,,---,0.00,VWS V14.01,2013-05-25 09:47:00,
2013-05-25 05:52:00,43.7,41.2,30.25,NNW,330,0.0,1.0,91,0.00,,---,0.00,VWS V14.01,2013-05-25 09:52:00,
2013-05-25 05:57:00,44.1,41.7,30.25,NNW,341,0.0,1.0,91,0.00,,---,0.00,VWS V14.01,2013-05-25 09:57:00,
2013-05-25 06:02:00,44.1,41.4,30.26,NNW,342,0.0,1.0,90,0.00,,---,0.00,VWS V14.01,2013-05-25 10:02:00,
2013-05-25 06:07:00,44.0,41.3,30.26,NNW,341,0.0,1.0,90,0.00,,---,0.00,VWS V14.01,2013-05-25 10:07:00,
2013-05-25 06:12:00,43.8,41.3,30.26,NNW,341,0.0,0.0,91,0.00,,---,0.00,VWS V14.01,2013-05-25 10:12:00,
2013-05-25 06:17:00,43.6,41.2,30.26,NNW,341,0.0,0.0,91,0.00,,---,0.00,VWS V14.01,2013-05-25 10:17:00,
2013-05-25 06:22:00,43.3,40.8,30.26,NNW,341,0.0,0.0,91,0.00,,---,0.00,VWS V14.01,2013-05-25 10:22:00,
2013-05-25 06:27:00,43.2,41.0,30.27,NNW,341,0.0,0.0,92,0.00,,---,0.00,VWS V14.01,2013-05-25 10:27:00,
2013-05-25 06:32:00,43.5,41.6,30.27,NNW,342,0.0,0.0,93,0.00,,---,0.00,VWS V14.01,2013-05-25 10:32:00,
2013-05-25 06:37:00,43.8,41.9,30.27,NNW,342,0.0,0.0,93,0.00,,---,0.00,VWS V14.01,2013-05-25 10:37:00,
2013-05-25 06:42:00,44.2,41.7,30.27,WSW,258,0.0,0.0,91,0.00,,---,0.00,VWS V14.01,2013-05-25 10:42:00,
2013-05-25 06:47:00,44.6,42.1,30.28,SW,214,1.0,2.0,91,0.00,,---,0.00,VWS V14.01,2013-05-25 10:47:00,
2013-05-25 06:52:00,45.3,42.5,30.28,WSW,239,1.0,2.0,90,0.00,,---,0.00,VWS V14.01,2013-05-25 10:52:00,
2013-05-25 06:57:00,45.9,42.8,30.28,West,278,0.0,2.0,89,0.00,,---,0.00,VWS V14.01,2013-05-25 10:57:00,
2013-05-25 07:02:00,46.9,43.2,30.29,West,279,1.0,1.0,87,0.00,,---,0.00,VWS V14.01,2013-05-25 11:02:00,
2013-05-25 07:07:00,47.9,43.6,30.29,WNW,284,2.0,2.0,85,0.00,,---,0.00,VWS V14.01,2013-05-25 11:07:00,
2013-05-25 07:12:00,48.8,42.9,30.29,WNW,282,2.0,3.0,80,0.00,,---,0.00,VWS V14.01,2013-05-25 11:12:00,
2013-05-25 07:17:00,49.8,42.9,30.29,WNW,299,2.0,2.0,77,0.00,,---,0.00,VWS V14.01,2013-05-25 11:17:00,
2013-05-25 07:22:00,50.4,42.8,30.29,NW,311,0.0,2.0,75,0.00,,---,0.00,VWS V14.01,2013-05-25 11:22:00,
2013-05-25 07:27:00,51.0,43.4,30.29,NW,318,1.0,2.0,75,0.00,,---,0.00,VWS V14.01,2013-05-25 11:27:00,
2013-05-25 07:32:00,51.2,43.9,30.29,NW,324,0.0,2.0,76,0.00,,---,0.00,VWS V14.01,2013-05-25 11:32:00,
2013-05-25 07:37:00,51.3,44.3,30.30,NW,326,0.0,1.0,77,0.00,,---,0.00,VWS V14.01,2013-05-25 11:37:00,
2013-05-25 07:42:00,51.5,44.2,30.30,NW,326,0.0,1.0,76,0.00,,---,0.00,VWS V14.01,2013-05-25 11:42:00,
2013-05-25 07:47:00,51.8,44.8,30.30,NNW,340,0.0,2.0,77,0.00,,---,0.00,VWS V14.01,2013-05-25 11:47:00,
2013-05-25 07:52:00,52.1,44.1,30.30,NW,325,0.0,4.0,74,0.00,,---,0.00,VWS V14.01,2013-05-25 11:52:00,
2013-05-25 07:58:00,52.6,44.9,30.30,NW,316,0.0,2.0,75,0.00,,---,0.00,VWS V14.01,2013-05-25 11:58:00,
2013-05-25 08:03:00,53.3,45.6,30.31,NNW,343,1.0,1.0,75,0.00,,---,0.00,VWS V14.01,2013-05-25 12:03:00,
2013-05-25 08:08:00,53.7,44.9,30.31,NNW,335,1.0,2.0,72,0.00,,---,0.00,VWS V14.01,2013-05-25 12:08:00,
2013-05-25 08:13:00,54.1,45.3,30.31,WNW,297,1.0,2.0,72,0.00,,---,0.00,VWS V14.01,2013-05-25 12:13:00,
2013-05-25 08:18:00,54.5,45.7,30.32,NNW,329,0.0,3.0,72,0.00,,---,0.00,VWS V14.01,2013-05-25 12:18:00,
2013-05-25 08:23:00,54.9,45.7,30.32,NW,305,0.0,3.0,71,0.00,,---,0.00,VWS V14.01,2013-05-25 12:23:00,
2013-05-25 08:28:00,55.2,46.3,30.32,NW,309,1.0,1.0,72,0.00,,---,0.00,VWS V14.01,2013-05-25 12:28:00,
2013-05-25 08:33:00,55.7,46.1,30.33,WNW,286,1.0,2.0,70,0.00,,---,0.00,VWS V14.01,2013-05-25 12:33:00,
2013-05-25 08:38:00,56.1,46.1,30.33,North,352,2.0,4.0,69,0.00,,---,0.00,VWS V14.01,2013-05-25 12:38:00,
2013-05-25 08:43:00,56.8,46.0,30.33,NW,311,1.0,4.0,67,0.00,,---,0.00,VWS V14.01,2013-05-25 12:43:00,
2013-05-25 08:48:00,57.3,46.0,30.33,NW,314,1.0,3.0,66,0.00,,---,0.00,VWS V14.01,2013-05-25 12:48:00,
2013-05-25 08:53:00,57.9,47.4,30.33,WNW,290,0.0,1.0,68,0.00,,---,0.00,VWS V14.01,2013-05-25 12:53:00,
2013-05-25 08:58:00,58.4,46.3,30.33,NNW,335,2.0,2.0,64,0.00,,---,0.00,VWS V14.01,2013-05-25 12:58:00,
2013-05-25 09:03:00,58.7,45.3,30.33,NNE,19,1.0,4.0,61,0.00,,---,0.00,VWS V14.01,2013-05-25 13:03:00,
2013-05-25 09:08:00,59.0,45.2,30.33,North,4,1.0,4.0,60,0.00,,---,0.00,VWS V14.01,2013-05-25 13:08:00,
2013-05-25 09:13:00,59.4,44.2,30.33,NE,40,0.0,3.0,57,0.00,,---,0.00,VWS V14.01,2013-05-25 13:13:00,
2013-05-25 09:18:00,59.7,44.5,30.33,NNW,337,3.0,3.0,57,0.00,,---,0.00,VWS V14.01,2013-05-25 13:18:00,
2013-05-25 09:23:00,59.7,42.1,30.33,North,352,2.0,6.0,52,0.00,,---,0.00,VWS V14.01,2013-05-25 13:23:00,
2013-05-25 09:28:00,60.0,42.8,30.34,NE,34,1.0,9.0,53,0.00,,---,0.00,VWS V14.01,2013-05-25 13:28:00,
2013-05-25 09:33:00,60.4,43.7,30.34,NNW,347,3.0,8.0,54,0.00,,---,0.00,VWS V14.01,2013-05-25 13:33:00,
2013-05-25 09:38:00,60.7,44.0,30.34,NNW,331,3.0,6.0,54,0.00,,---,0.00,VWS V14.01,2013-05-25 13:38:00,
2013-05-25 09:43:00,60.8,42.6,30.34,NE,45,1.0,9.0,51,0.00,,---,0.00,VWS V14.01,2013-05-25 13:43:00,
2013-05-25 09:48:00,61.2,43.5,30.34,NW,309,1.0,7.0,52,0.00,,---,0.00,VWS V14.01,2013-05-25 13:48:00,
2013-05-25 09:53:00,61.5,43.2,30.34,NNE,18,3.0,7.0,51,0.00,,---,0.00,VWS V14.01,2013-05-25 13:53:00,
2013-05-25 09:58:00,61.8,44.0,30.34,North,8,4.0,8.0,52,0.00,,---,0.00,VWS V14.01,2013-05-25 13:58:00,
2013-05-25 10:03:00,62.4,44.0,30.33,ENE,58,2.0,2.0,51,0.00,,---,0.00,VWS V14.01,2013-05-25 14:03:00,
2013-05-25 10:08:00,62.8,42.8,30.33,NE,39,1.0,6.0,48,0.00,,---,0.00,VWS V14.01,2013-05-25 14:08:00,
2013-05-25 10:13:00,63.1,41.4,30.33,NE,51,4.0,8.0,45,0.00,,---,0.00,VWS V14.01,2013-05-25 14:13:00,
2013-05-25 10:18:00,63.3,42.2,30.33,NE,53,0.0,3.0,46,0.00,,---,0.00,VWS V14.01,2013-05-25 14:18:00,
2013-05-25 10:23:00,62.8,41.2,30.33,NE,51,1.0,3.0,45,0.00,,---,0.00,VWS V14.01,2013-05-25 14:23:00,
2013-05-25 10:28:00,63.1,41.4,30.33,NE,40,3.0,9.0,45,0.00,,---,0.00,VWS V14.01,2013-05-25 14:28:00,
2013-05-25 10:33:00,63.4,42.3,30.33,North,352,3.0,6.0,46,0.00,,---,0.00,VWS V14.01,2013-05-25 14:33:00,
2013-05-25 10:38:00,63.6,41.3,30.33,ENE,61,1.0,5.0,44,0.00,,---,0.00,VWS V14.01,2013-05-25 14:38:00,
2013-05-25 10:43:00,63.8,40.9,30.33,NW,315,3.0,5.0,43,0.00,,---,0.00,VWS V14.01,2013-05-25 14:43:00,
2013-05-25 10:48:00,63.9,41.0,30.32,West,278,1.0,6.0,43,0.00,,---,0.00,VWS V14.01,2013-05-25 14:48:00,
2013-05-25 10:53:00,64.4,40.2,30.32,North,6,1.0,6.0,41,0.00,,---,0.00,VWS V14.01,2013-05-25 14:53:00,
2013-05-25 10:58:00,64.5,40.9,30.32,NE,53,0.0,2.0,42,0.00,,---,0.00,VWS V14.01,2013-05-25 14:58:00,
2013-05-25 11:03:00,64.8,41.8,30.32,North,4,3.0,5.0,43,0.00,,---,0.00,VWS V14.01,2013-05-25 15:03:00,
2013-05-25 11:08:00,65.3,41.0,30.31,North,11,1.0,2.0,41,0.00,,---,0.00,VWS V14.01,2013-05-25 15:08:00,
2013-05-25 11:13:00,65.5,37.9,30.31,WNW,292,0.0,4.0,36,0.00,,---,0.00,VWS V14.01,2013-05-25 15:13:00,
2013-05-25 11:18:00,66.0,39.0,30.32,NW,314,7.0,7.0,37,0.00,,---,0.00,VWS V14.01,2013-05-25 15:18:00,
2013-05-25 11:23:00,66.2,41.8,30.32,WNW,283,0.0,1.0,41,0.00,,---,0.00,VWS V14.01,2013-05-25 15:23:00,
2013-05-25 11:28:00,66.9,40.5,30.31,North,5,0.0,1.0,38,0.00,,---,0.00,VWS V14.01,2013-05-25 15:28:00,
2013-05-25 11:33:00,66.8,38.3,30.31,NNW,332,4.0,5.0,35,0.00,,---,0.00,VWS V14.01,2013-05-25 15:33:00,
2013-05-25 11:38:00,66.6,38.8,30.31,West,264,0.0,4.0,36,0.00,,---,0.00,VWS V14.01,2013-05-25 15:38:00,
2013-05-25 11:43:00,66.9,36.9,30.31,West,278,2.0,4.0,33,0.00,,---,0.00,VWS V14.01,2013-05-25 15:43:00,
2013-05-25 11:48:00,67.0,37.0,30.31,NE,56,4.0,4.0,33,0.00,,---,0.00,VWS V14.01,2013-05-25 15:48:00,
2013-05-25 11:53:00,66.9,37.7,30.31,SW,228,0.0,2.0,34,0.00,,---,0.00,VWS V14.01,2013-05-25 15:53:00,
2013-05-25 11:58:00,67.7,36.8,30.31,NE,51,0.0,1.0,32,0.00,,---,0.00,VWS V14.01,2013-05-25 15:58:00,
2013-05-25 12:03:00,67.9,40.0,30.31,NNE,32,3.0,3.0,36,0.00,,---,0.00,VWS V14.01,2013-05-25 16:03:00,
2013-05-25 12:08:00,68.1,38.7,30.31,NW,325,1.0,4.0,34,0.00,,---,0.00,VWS V14.01,2013-05-25 16:08:00,
2013-05-25 12:13:00,68.4,38.2,30.31,NNW,329,2.0,3.0,33,0.00,,---,0.00,VWS V14.01,2013-05-25 16:13:00,
2013-05-25 12:18:00,67.9,39.3,30.31,North,10,2.0,9.0,35,0.00,,---,0.00,VWS V14.01,2013-05-25 16:18:00,
2013-05-25 12:23:00,68.3,40.3,30.31,NNW,333,2.0,5.0,36,0.00,,---,0.00,VWS V14.01,2013-05-25 16:23:00,
2013-05-25 12:28:00,68.3,39.6,30.31,SW,235,0.0,1.0,35,0.00,,---,0.00,VWS V14.01,2013-05-25 16:28:00,
2013-05-25 12:33:00,68.5,39.0,30.31,SSW,201,0.0,4.0,34,0.00,,---,0.00,VWS V14.01,2013-05-25 16:33:00,
2013-05-25 12:38:00,68.5,39.0,30.31,NNW,333,1.0,5.0,34,0.00,,---,0.00,VWS V14.01,2013-05-25 16:38:00,
2013-05-25 12:43:00,68.3,35.7,30.31,WNW,284,3.0,8.0,30,0.00,,---,0.00,VWS V14.01,2013-05-25 16:43:00,
2013-05-25 12:48:00,68.4,39.7,30.30,West,277,0.0,5.0,35,0.00,,---,0.00,VWS V14.01,2013-05-25 16:48:00,
2013-05-25 12:53:00,69.4,40.6,30.29,NW,309,1.0,4.0,35,0.00,,---,0.00,VWS V14.01,2013-05-25 16:53:00,
2013-05-25 12:59:00,69.3,36.6,30.29,NW,315,5.0,10.0,30,0.00,,---,0.00,VWS V14.01,2013-05-25 16:59:00,
2013-05-25 13:04:00,68.5,36.7,30.29,NE,36,1.0,6.0,31,0.00,,---,0.00,VWS V14.01,2013-05-25 17:04:00,
2013-05-25 13:09:00,68.8,37.0,30.28,WNW,296,1.0,4.0,31,0.00,,---,0.00,VWS V14.01,2013-05-25 17:09:00,
2013-05-25 13:14:00,68.8,37.0,30.28,North,358,0.0,4.0,31,0.00,,---,0.00,VWS V14.01,2013-05-25 17:14:00,
2013-05-25 13:19:00,69.2,40.4,30.28,ENE,78,2.0,3.0,35,0.00,,---,0.00,VWS V14.01,2013-05-25 17:19:00,
2013-05-25 13:24:00,69.4,39.8,30.28,ENE,77,2.0,4.0,34,0.00,,---,0.00,VWS V14.01,2013-05-25 17:24:00,
2013-05-25 13:29:00,70.0,41.1,30.27,SW,236,0.0,1.0,35,0.00,,---,0.00,VWS V14.01,2013-05-25 17:29:00,
2013-05-25 13:34:00,70.6,40.1,30.27,West,278,3.0,5.0,33,0.00,,---,0.00,VWS V14.01,2013-05-25 17:34:00,
2013-05-25 13:39:00,70.1,38.1,30.27,NW,311,2.0,6.0,31,0.00,,---,0.00,VWS V14.01,2013-05-25 17:39:00,
2013-05-25 13:44:00,70.1,39.7,30.26,WSW,253,4.0,7.0,33,0.00,,---,0.00,VWS V14.01,2013-05-25 17:44:00,
2013-05-25 13:49:00,70.5,39.2,30.26,SSW,207,2.0,5.0,32,0.00,,---,0.00,VWS V14.01,2013-05-25 17:49:00,
2013-05-25 13:54:00,70.7,41.0,30.25,West,260,5.0,6.0,34,0.00,,---,0.00,VWS V14.01,2013-05-25 17:54:00,
2013-05-25 13:59:00,70.5,39.2,30.25,ENE,59,3.0,3.0,32,0.00,,---,0.00,VWS V14.01,2013-05-25 17:59:00,
2013-05-25 14:04:00,70.4,39.2,30.24,NE,46,1.0,2.0,32,0.00,,---,0.00,VWS V14.01,2013-05-25 18:04:00,
2013-05-25 14:09:00,70.9,41.9,30.24,NE,40,1.0,2.0,35,0.00,,---,0.00,VWS V14.01,2013-05-25 18:09:00,
2013-05-25 14:14:00,72.0,41.3,30.24,NNE,19,0.0,2.0,33,0.00,,---,0.00,VWS V14.01,2013-05-25 18:14:00,
2013-05-25 14:19:00,72.7,42.0,30.23,SSW,212,1.0,3.0,33,0.00,,---,0.00,VWS V14.01,2013-05-25 18:19:00,
2013-05-25 14:24:00,72.6,41.1,30.24,WNW,298,3.0,4.0,32,0.00,,---,0.00,VWS V14.01,2013-05-25 18:24:00,
2013-05-25 14:29:00,72.8,41.3,30.24,SW,229,3.0,5.0,32,0.00,,---,0.00,VWS V14.01,2013-05-25 18:29:00,
2013-05-25 14:34:00,72.7,41.2,30.23,WSW,249,3.0,4.0,32,0.00,,---,0.00,VWS V14.01,2013-05-25 18:34:00,
2013-05-25 14:39:00,72.5,38.5,30.22,NW,321,1.0,5.0,29,0.00,,---,0.00,VWS V14.01,2013-05-25 18:39:00,
2013-05-25 14:44:00,72.3,38.3,30.22,ENE,68,1.0,5.0,29,0.00,,---,0.00,VWS V14.01,2013-05-25 18:44:00,
2013-05-25 14:49:00,72.6,40.3,30.22,ESE,112,1.0,3.0,31,0.00,,---,0.00,VWS V14.01,2013-05-25 18:49:00,
2013-05-25 14:54:00,73.0,41.4,30.22,SSE,148,2.0,5.0,32,0.00,,---,0.00,VWS V14.01,2013-05-25 18:54:00,
2013-05-25 14:59:00,73.6,41.1,30.22,SSW,207,5.0,6.0,31,0.00,,---,0.00,VWS V14.01,2013-05-25 18:59:00,
2013-05-25 15:04:00,73.3,37.3,30.22,West,271,6.0,13.0,27,0.00,,---,0.00,VWS V14.01,2013-05-25 19:04:00,
2013-05-25 15:09:00,73.1,39.0,30.22,West,269,11.0,11.0,29,0.00,,---,0.00,VWS V14.01,2013-05-25 19:09:00,
2013-05-25 15:14:00,73.0,38.0,30.22,NW,304,4.0,10.0,28,0.00,,---,0.00,VWS V14.01,2013-05-25 19:14:00,
2013-05-25 15:19:00,73.1,40.7,30.22,West,262,4.0,6.0,31,0.00,,---,0.00,VWS V14.01,2013-05-25 19:19:00,
2013-05-25 15:24:00,73.5,41.0,30.21,WNW,283,4.0,6.0,31,0.00,,---,0.00,VWS V14.01,2013-05-25 19:24:00,
2013-05-25 15:29:00,74.1,41.6,30.21,WNW,300,4.0,10.0,31,0.00,,---,0.00,VWS V14.01,2013-05-25 19:29:00,
2013-05-25 15:34:00,74.2,39.9,30.21,WNW,295,4.0,8.0,29,0.00,,---,0.00,VWS V14.01,2013-05-25 19:34:00,
2013-05-25 15:39:00,74.3,40.0,30.21,WSW,255,1.0,7.0,29,0.00,,---,0.00,VWS V14.01,2013-05-25 19:39:00,
2013-05-25 15:44:00,74.5,43.5,30.21,WSW,257,4.0,8.0,33,0.00,,---,0.00,VWS V14.01,2013-05-25 19:44:00,
2013-05-25 15:49:00,74.6,42.8,30.20,WSW,249,6.0,6.0,32,0.00,,---,0.00,VWS V14.01,2013-05-25 19:49:00,
2013-05-25 15:54:00,74.4,41.8,30.20,WSW,238,2.0,8.0,31,0.00,,---,0.00,VWS V14.01,2013-05-25 19:54:00,
2013-05-25 15:59:00,74.3,41.7,30.20,SE,146,0.0,8.0,31,0.00,,---,0.00,VWS V14.01,2013-05-25 19:59:00,
2013-05-25 16:04:00,74.8,42.2,30.20,West,264,2.0,9.0,31,0.00,,---,0.00,VWS V14.01,2013-05-25 20:04:00,
2013-05-25 16:09:00,74.7,42.1,30.20,WSW,249,6.0,11.0,31,0.00,,---,0.00,VWS V14.01,2013-05-25 20:09:00,
2013-05-25 16:14:00,74.7,42.9,30.19,SW,222,1.0,7.0,32,0.00,,---,0.00,VWS V14.01,2013-05-25 20:14:00,
2013-05-25 16:19:00,74.9,43.1,30.20,West,259,4.0,8.0,32,0.00,,---,0.00,VWS V14.01,2013-05-25 20:19:00,
2013-05-25 16:24:00,75.0,44.0,30.20,WSW,253,3.0,12.0,33,0.00,,---,0.00,VWS V14.01,2013-05-25 20:24:00,
2013-05-25 16:29:00,74.9,43.1,30.19,West,269,2.0,12.0,32,0.00,,---,0.00,VWS V14.01,2013-05-25 20:29:00,
2013-05-25 16:34:00,75.1,44.1,30.19,WNW,298,3.0,6.0,33,0.00,,---,0.00,VWS V14.01,2013-05-25 20:34:00,
2013-05-25 16:39:00,75.6,43.7,30.19,WSW,256,2.0,7.0,32,0.00,,---,0.00,VWS V14.01,2013-05-25 20:39:00,
2013-05-25 16:44:00,75.5,43.6,30.19,SW,222,1.0,13.0,32,0.00,,---,0.00,VWS V14.01,2013-05-25 20:44:00,
2013-05-25 16:49:00,75.2,42.5,30.19,WSW,238,3.0,12.0,31,0.00,,---,0.00,VWS V14.01,2013-05-25 20:49:00,
2013-05-25 16:54:00,75.0,44.0,30.19,WNW,298,1.0,7.0,33,0.00,,---,0.00,VWS V14.01,2013-05-25 20:54:00,
2013-05-25 16:59:00,75.4,43.5,30.19,West,281,5.0,9.0,32,0.00,,---,0.00,VWS V14.01,2013-05-25 20:59:00,
2013-05-25 17:04:00,75.4,41.0,30.19,WSW,247,6.0,12.0,29,0.00,,---,0.00,VWS V14.01,2013-05-25 21:04:00,
2013-05-25 17:09:00,75.2,40.8,30.19,WNW,285,3.0,13.0,29,0.00,,---,0.00,VWS V14.01,2013-05-25 21:09:00,
2013-05-25 17:14:00,75.1,43.3,30.19,WNW,300,4.0,8.0,32,0.00,,---,0.00,VWS V14.01,2013-05-25 21:14:00,
2013-05-25 17:19:00,75.1,43.3,30.19,NNW,343,6.0,7.0,32,0.00,,---,0.00,VWS V14.01,2013-05-25 21:19:00,
2013-05-25 17:24:00,75.3,44.2,30.19,NNW,340,3.0,7.0,33,0.00,,---,0.00,VWS V14.01,2013-05-25 21:24:00,
2013-05-25 17:29:00,75.3,42.6,30.18,West,281,5.0,8.0,31,0.00,,---,0.00,VWS V14.01,2013-05-25 21:29:00,
2013-05-25 17:34:00,75.2,42.5,30.18,West,276,7.0,9.0,31,0.00,,---,0.00,VWS V14.01,2013-05-25 21:34:00,
2013-05-25 17:39:00,75.1,42.4,30.18,West,279,4.0,9.0,31,0.00,,---,0.00,VWS V14.01,2013-05-25 21:39:00,
2013-05-25 17:45:00,75.0,42.3,30.18,WNW,283,4.0,10.0,31,0.00,,---,0.00,VWS V14.01,2013-05-25 21:45:00,
2013-05-25 17:50:00,75.1,42.4,30.18,West,267,2.0,5.0,31,0.00,,---,0.00,VWS V14.01,2013-05-25 21:50:00,
2013-05-25 17:54:00,75.2,41.7,30.18,West,276,2.0,14.0,30,0.00,,---,0.00,VWS V14.01,2013-05-25 21:54:00,
2013-05-25 18:00:00,75.3,42.6,30.18,West,267,6.0,11.0,31,0.00,,---,0.00,VWS V14.01,2013-05-25 22:00:00,
2013-05-25 18:05:00,75.2,41.7,30.18,West,270,4.0,9.0,30,0.00,,---,0.00,VWS V14.01,2013-05-25 22:05:00,
2013-05-25 18:10:00,75.2,42.5,30.18,West,278,7.0,8.0,31,0.00,,---,0.00,VWS V14.01,2013-05-25 22:10:00,
2013-05-25 18:15:00,75.3,43.4,30.18,SSW,193,0.0,8.0,32,0.00,,---,0.00,VWS V14.01,2013-05-25 22:15:00,
2013-05-25 18:20:00,75.5,43.6,30.18,West,274,7.0,8.0,32,0.00,,---,0.00,VWS V14.01,2013-05-25 22:20:00,
2013-05-25 18:25:00,75.4,43.5,30.18,SW,219,3.0,8.0,32,0.00,,---,0.00,VWS V14.01,2013-05-25 22:25:00,
2013-05-25 18:30:00,75.3,44.2,30.18,West,276,3.0,10.0,33,0.00,,---,0.00,VWS V14.01,2013-05-25 22:30:00,
2013-05-25 18:35:00,75.3,43.4,30.18,WNW,285,2.0,7.0,32,0.00,,---,0.00,VWS V14.01,2013-05-25 22:35:00,
2013-05-25 18:40:00,75.3,44.2,30.18,WNW,285,9.0,9.0,33,0.00,,---,0.00,VWS V14.01,2013-05-25 22:40:00,
2013-05-25 18:45:00,75.2,43.3,30.18,WNW,282,1.0,10.0,32,0.00,,---,0.00,VWS V14.01,2013-05-25 22:45:00,
2013-05-25 18:50:00,75.1,44.1,30.18,WSW,243,3.0,7.0,33,0.00,,---,0.00,VWS V14.01,2013-05-25 22:50:00,
2013-05-25 18:55:00,75.0,43.2,30.18,West,280,2.0,8.0,32,0.00,,---,0.00,VWS V14.01,2013-05-25 22:55:00,
2013-05-25 19:00:00,75.1,44.8,30.18,WNW,283,1.0,5.0,34,0.00,,---,0.00,VWS V14.01,2013-05-25 23:00:00,
2013-05-25 19:05:00,75.1,44.8,30.18,WNW,285,1.0,6.0,34,0.00,,---,0.00,VWS V14.01,2013-05-25 23:05:00,
2013-05-25 19:10:00,75.2,45.7,30.17,WSW,239,1.0,3.0,35,0.00,,---,0.00,VWS V14.01,2013-05-25 23:10:00,
2013-05-25 19:15:00,75.6,46.0,30.17,WSW,240,0.0,1.0,35,0.00,,---,0.00,VWS V14.01,2013-05-25 23:15:00,
2013-05-25 19:20:00,75.7,46.9,30.18,WSW,257,3.0,3.0,36,0.00,,---,0.00,VWS V14.01,2013-05-25 23:20:00,
2013-05-25 19:25:00,75.3,46.5,30.18,SW,235,0.0,4.0,36,0.00,,---,0.00,VWS V14.01,2013-05-25 23:25:00,
2013-05-25 19:30:00,75.4,46.6,30.18,West,275,2.0,5.0,36,0.00,,---,0.00,VWS V14.01,2013-05-25 23:30:00,
2013-05-25 19:35:00,74.9,46.9,30.18,West,259,0.0,6.0,37,0.00,,---,0.00,VWS V14.01,2013-05-25 23:35:00,
2013-05-25 19:40:00,74.4,46.5,30.18,West,269,5.0,5.0,37,0.00,,---,0.00,VWS V14.01,2013-05-25 23:40:00,
2013-05-25 19:45:00,74.0,46.8,30.18,West,264,4.0,6.0,38,0.00,,---,0.00,VWS V14.01,2013-05-25 23:45:00,
2013-05-25 19:50:00,73.8,46.6,30.18,West,262,2.0,4.0,38,0.00,,---,0.00,VWS V14.01,2013-05-25 23:50:00,
2013-05-25 19:55:00,73.5,46.4,30.18,West,263,2.0,3.0,38,0.00,,---,0.00,VWS V14.01,2013-05-25 23:55:00,
2013-05-25 20:00:00,73.1,46.0,30.18,West,271,4.0,6.0,38,0.00,,---,0.00,VWS V14.01,2013-05-26 00:00:00,
2013-05-25 20:05:00,72.7,46.3,30.18,West,267,2.0,4.0,39,0.00,,---,0.00,VWS V14.01,2013-05-26 00:05:00,
2013-05-25 20:10:00,72.4,46.1,30.18,West,276,3.0,4.0,39,0.00,,---,0.00,VWS V14.01,2013-05-26 00:10:00,
2013-05-25 20:15:00,72.0,45.7,30.18,West,264,3.0,5.0,39,0.00,,---,0.00,VWS V14.01,2013-05-26 00:15:00,
2013-05-25 20:20:00,71.6,45.4,30.18,WSW,258,6.0,6.0,39,0.00,,---,0.00,VWS V14.01,2013-05-26 00:20:00,
2013-05-25 20:25:00,71.4,45.8,30.18,WSW,243,6.0,6.0,40,0.00,,---,0.00,VWS V14.01,2013-05-26 00:25:00,
2013-05-25 20:30:00,71.1,46.2,30.18,West,262,5.0,6.0,41,0.00,,---,0.00,VWS V14.01,2013-05-26 00:30:00,
2013-05-25 20:35:00,70.7,45.9,30.18,West,270,2.0,6.0,41,0.00,,---,0.00,VWS V14.01,2013-05-26 00:35:00,
2013-05-25 20:40:00,70.5,46.3,30.18,WSW,257,2.0,5.0,42,0.00,,---,0.00,VWS V14.01,2013-05-26 00:40:00,
2013-05-25 20:45:00,70.1,47.2,30.18,WSW,246,0.0,5.0,44,0.00,,---,0.00,VWS V14.01,2013-05-26 00:45:00,
2013-05-25 20:50:00,69.2,47.0,30.18,WSW,254,1.0,1.0,45,0.00,,---,0.00,VWS V14.01,2013-05-26 00:50:00,
2013-05-25 20:55:00,69.0,46.8,30.18,WSW,256,1.0,3.0,45,0.00,,---,0.00,VWS V14.01,2013-05-26 00:55:00,
2013-05-25 21:00:00,68.9,46.7,30.19,WSW,248,3.0,3.0,45,0.00,,---,0.00,VWS V14.01,2013-05-26 01:00:00,
2013-05-25 21:05:00,68.9,46.7,30.19,WSW,250,0.0,6.0,45,0.00,,---,0.00,VWS V14.01,2013-05-26 01:05:00,
2013-05-25 21:10:00,68.9,46.7,30.19,WSW,250,3.0,5.0,45,0.00,,---,0.00,VWS V14.01,2013-05-26 01:10:00,
2013-05-25 21:15:00,68.8,46.6,30.19,WSW,242,3.0,7.0,45,0.00,,---,0.00,VWS V14.01,2013-05-26 01:15:00,
2013-05-25 21:20:00,68.6,46.4,30.19,WSW,254,2.0,5.0,45,0.00,,---,0.00,VWS V14.01,2013-05-26 01:20:00,
2013-05-25 21:25:00,68.4,46.2,30.19,SW,232,3.0,5.0,45,0.00,,---,0.00,VWS V14.01,2013-05-26 01:25:00,
2013-05-25 21:31:00,68.1,46.6,30.19,WSW,240,3.0,5.0,46,0.00,,---,0.00,VWS V14.01,2013-05-26 01:31:00,
2013-05-25 21:36:00,67.8,46.3,30.19,SW,229,3.0,4.0,46,0.00,,---,0.00,VWS V14.01,2013-05-26 01:36:00,
2013-05-25 21:41:00,67.5,46.6,30.19,WSW,239,3.0,4.0,47,0.00,,---,0.00,VWS V14.01,2013-05-26 01:41:00,
2013-05-25 21:46:00,67.2,46.9,30.19,West,270,2.0,3.0,48,0.00,,---,0.00,VWS V14.01,2013-05-26 01:46:00,
2013-05-25 21:51:00,67.0,46.7,30.19,WSW,245,1.0,3.0,48,0.00,,---,0.00,VWS V14.01,2013-05-26 01:51:00,
2013-05-25 21:56:00,66.8,46.5,30.20,WSW,245,1.0,2.0,48,0.00,,---,0.00,VWS V14.01,2013-05-26 01:56:00,
2013-05-25 22:01:00,66.7,47.0,30.20,WSW,240,1.0,2.0,49,0.00,,---,0.00,VWS V14.01,2013-05-26 02:01:00,
2013-05-25 22:06:00,66.5,46.8,30.20,SW,228,0.0,1.0,49,0.00,,---,0.00,VWS V14.01,2013-05-26 02:06:00,
2013-05-25 22:11:00,66.3,46.6,30.20,SW,228,1.0,1.0,49,0.00,,---,0.00,VWS V14.01,2013-05-26 02:11:00,
2013-05-25 22:16:00,66.1,46.4,30.20,WSW,238,1.0,2.0,49,0.00,,---,0.00,VWS V14.01,2013-05-26 02:16:00,
2013-05-25 22:21:00,66.1,46.4,30.20,WSW,237,2.0,3.0,49,0.00,,---,0.00,VWS V14.01,2013-05-26 02:21:00,
2013-05-25 22:26:00,66.0,46.3,30.20,WSW,248,2.0,3.0,49,0.00,,---,0.00,VWS V14.01,2013-05-26 02:26:00,
2013-05-25 22:31:00,65.8,46.7,30.20,SW,229,3.0,4.0,50,0.00,,---,0.00,VWS V14.01,2013-05-26 02:31:00,
2013-05-25 22:36:00,65.5,46.4,30.20,WSW,240,1.0,3.0,50,0.00,,---,0.00,VWS V14.01,2013-05-26 02:36:00,
2013-05-25 22:41:00,65.2,47.2,30.20,SW,229,1.0,3.0,52,0.00,,---,0.00,VWS V14.01,2013-05-26 02:41:00,
2013-05-25 22:46:00,64.6,48.1,30.20,SSW,198,2.0,2.0,55,0.00,,---,0.00,VWS V14.01,2013-05-26 02:46:00,
2013-05-25 22:51:00,63.9,48.8,30.20,SSW,207,2.0,2.0,58,0.00,,---,0.00,VWS V14.01,2013-05-26 02:51:00,
2013-05-25 22:56:00,63.7,48.2,30.20,SW,224,2.0,2.0,57,0.00,,---,0.00,VWS V14.01,2013-05-26 02:56:00,
2013-05-25 23:01:00,64.0,48.0,30.20,WSW,242,2.0,3.0,56,0.00,,---,0.00,VWS V14.01,2013-05-26 03:01:00,
2013-05-25 23:06:00,64.3,47.3,30.19,WSW,237,2.0,4.0,54,0.00,,---,0.00,VWS V14.01,2013-05-26 03:06:00,
2013-05-25 23:11:00,64.4,46.9,30.19,SW,231,1.0,4.0,53,0.00,,---,0.00,VWS V14.01,2013-05-26 03:11:00,
2013-05-25 23:16:00,64.3,46.8,30.20,SW,229,1.0,3.0,53,0.00,,---,0.00,VWS V14.01,2013-05-26 03:16:00,
2013-05-25 23:21:00,64.1,47.1,30.19,SW,224,0.0,1.0,54,0.00,,---,0.00,VWS V14.01,2013-05-26 03:21:00,
2013-05-25 23:26:00,63.7,47.7,30.19,SW,214,0.0,0.0,56,0.00,,---,0.00,VWS V14.01,2013-05-26 03:26:00,
2013-05-25 23:31:00,63.3,48.3,30.19,SSW,193,0.0,0.0,58,0.00,,---,0.00,VWS V14.01,2013-05-26 03:31:00,
2013-05-25 23:36:00,62.9,48.4,30.19,SSW,193,0.0,0.0,59,0.00,,---,0.00,VWS V14.01,2013-05-26 03:36:00,
2013-05-25 23:41:00,62.7,47.7,30.19,WSW,243,0.0,4.0,58,0.00,,---,0.00,VWS V14.01,2013-05-26 03:41:00,
2013-05-25 23:46:00,62.6,48.1,30.19,West,273,1.0,3.0,59,0.00,,---,0.00,VWS V14.01,2013-05-26 03:46:00,
2013-05-25 23:51:00,62.3,47.8,30.19,West,281,0.0,1.0,59,0.00,,---,0.00,VWS V14.01,2013-05-26 03:51:00,
2013-05-25 23:56:00,61.5,48.8,30.19,NNE,16,0.0,1.0,63,0.00,,---,0.00,VWS V14.01,2013-05-26 03:56:00,